createdAt,value
2022-10-02T00:00:34.444Z,9.90
2022-10-02T00:03:22.427Z,10.65
2022-10-02T00:06:07.837Z,8.70
2022-10-02T00:08:41.535Z,11.68
2022-10-02T00:11:45.423Z,11.25
2022-10-02T00:14:19.267Z,10.50
2022-10-02T00:16:53.666Z,10.52
2022-10-02T00:19:21.408Z,13.90
2022-10-02T00:22:24.941Z,6.93
2022-10-02T00:25:09.360Z,13.25
2022-10-02T00:28:20.236Z,12.52
2022-10-02T00:31:06.798Z,10.73
2022-10-02T00:34:03.157Z,9.80
2022-10-02T00:39:47.423Z,14.45
2022-10-02T00:42:33.648Z,11.90
2022-10-02T00:45:27.091Z,11.05
2022-10-02T00:48:19.346Z,14.73
2022-10-02T00:51:13.154Z,10.63
2022-10-02T00:53:55.720Z,9.48
2022-10-02T00:56:35.438Z,6.20
2022-10-02T00:59:02.997Z,10.23
2022-10-02T01:01:46.992Z,8.98
2022-10-02T01:04:23.572Z,8.30
2022-10-02T01:06:51.050Z,10.55
2022-10-02T01:09:19.293Z,11.77
2022-10-02T01:11:49.220Z,9.82
2022-10-02T01:14:17.404Z,8.50
2022-10-02T01:16:45.828Z,8.90
2022-10-02T01:19:42.711Z,10.93
2022-10-02T01:22:21.139Z,5.60
2022-10-02T01:24:58.099Z,14.90
2022-10-02T01:30:01.394Z,14.88
2022-10-02T01:32:30.186Z,10.33
2022-10-02T01:34:59.993Z,14.10
2022-10-02T01:37:35.727Z,18.48
2022-10-02T01:40:10.203Z,10.30
2022-10-02T01:42:39.492Z,17.38
2022-10-02T01:45:09.355Z,13.10
2022-10-02T01:47:51.576Z,15.00
2022-10-02T01:50:56.873Z,20.90
2022-10-02T01:53:39.924Z,18.92
2022-10-02T01:56:29.275Z,16.30
2022-10-02T01:59:08.787Z,12.73
2022-10-02T02:02:22.414Z,14.85
2022-10-02T02:04:53.067Z,14.02
2022-10-02T02:07:35.728Z,18.30
2022-10-02T02:10:13.944Z,20.73
2022-10-02T02:13:16.136Z,17.00
2022-10-02T02:16:06.482Z,10.00
2022-10-02T02:18:44.882Z,14.52
2022-10-02T02:21:22.161Z,16.80
2022-10-02T02:23:53.450Z,19.55
2022-10-02T02:26:22.218Z,18.85
2022-10-02T02:28:58.523Z,18.25
2022-10-02T02:31:33.316Z,15.30
2022-10-02T02:34:05.298Z,15.38
2022-10-02T02:36:39.470Z,15.20
2022-10-02T02:39:11.984Z,19.35
2022-10-02T02:41:45.991Z,12.52
2022-10-02T02:44:28.192Z,18.67
2022-10-02T02:47:04.284Z,20.48
2022-10-02T02:49:45.906Z,17.87
2022-10-02T02:52:23.057Z,22.02
2022-10-02T02:55:08.682Z,13.82
2022-10-02T02:57:49.404Z,21.10
2022-10-02T03:00:20.891Z,20.05
2022-10-02T03:02:50.619Z,20.15
2022-10-02T03:05:21.351Z,21.05
2022-10-02T03:08:06.467Z,20.88
2022-10-02T03:10:45.942Z,21.63
2022-10-02T03:13:43.284Z,24.33
2022-10-02T03:16:29.367Z,27.33
2022-10-02T03:19:43.629Z,20.08
2022-10-02T03:22:22.660Z,18.35
2022-10-02T03:25:15.526Z,21.00
2022-10-02T03:27:51.532Z,18.80
2022-10-02T03:30:24.513Z,28.90
2022-10-02T03:32:53.799Z,25.55
2022-10-02T03:35:24.066Z,27.95
2022-10-02T03:37:55.908Z,30.10
2022-10-02T03:40:26.258Z,19.63
2022-10-02T03:42:58.642Z,24.08
2022-10-02T03:45:50.106Z,18.30
2022-10-02T03:48:17.795Z,17.70
2022-10-02T03:50:45.484Z,19.42
2022-10-02T03:53:17.059Z,18.48
2022-10-02T03:55:54.467Z,17.98
2022-10-02T03:58:22.876Z,14.85
2022-10-02T04:01:16.768Z,17.17
2022-10-02T04:04:11.597Z,14.20
2022-10-02T04:06:47.382Z,16.73
2022-10-02T04:09:27.947Z,12.48
2022-10-02T04:12:09.837Z,16.52
2022-10-02T04:14:49.266Z,16.90
2022-10-02T04:17:45.743Z,17.58
2022-10-02T04:21:04.160Z,15.63
2022-10-02T04:23:38.194Z,12.90
2022-10-02T04:26:16.749Z,12.65
2022-10-02T04:29:25.953Z,9.93
2022-10-02T04:32:26.739Z,10.55
2022-10-02T04:34:54.702Z,13.57
2022-10-02T04:37:56.168Z,11.68
2022-10-02T04:40:40.594Z,11.93
2022-10-02T04:43:21.318Z,10.43
2022-10-02T04:46:01.624Z,15.40
2022-10-02T04:49:02.675Z,10.57
2022-10-02T04:51:50.235Z,7.45
2022-10-02T04:55:07.354Z,9.43
2022-10-02T04:57:48.422Z,7.57
2022-10-02T05:00:19.999Z,10.73
2022-10-02T05:03:16.110Z,7.25
2022-10-02T05:06:14.599Z,6.80
2022-10-02T05:09:12.921Z,9.25
2022-10-02T05:12:03.375Z,8.70
2022-10-02T05:14:49.868Z,10.10
2022-10-02T05:17:17.854Z,4.90
2022-10-02T05:20:05.315Z,8.68
2022-10-02T05:22:54.656Z,11.27
2022-10-02T05:26:06.124Z,11.15
2022-10-02T05:28:37.575Z,7.00
2022-10-02T05:31:24.748Z,10.25
2022-10-02T05:34:33.943Z,10.35
2022-10-02T05:37:24.467Z,12.23
2022-10-02T05:40:04.259Z,10.82
2022-10-02T05:42:42.888Z,11.05
2022-10-02T05:45:27.586Z,6.65
2022-10-02T05:48:13.817Z,8.70
2022-10-02T05:50:43.195Z,7.30
2022-10-02T05:53:30.320Z,5.10
2022-10-02T05:56:04.780Z,11.23
2022-10-02T05:58:52.910Z,7.20
2022-10-02T06:01:32.280Z,8.93
2022-10-02T06:04:29.476Z,14.68
2022-10-02T06:07:07.386Z,12.98
2022-10-02T06:09:55.269Z,13.43
2022-10-02T06:15:23.410Z,15.23
2022-10-02T06:17:58.305Z,12.18
2022-10-02T06:20:43.282Z,14.40
2022-10-02T06:23:20.476Z,11.40
2022-10-02T06:25:57.518Z,12.35
2022-10-02T06:31:04.720Z,12.57
2022-10-02T06:33:33.669Z,11.57
2022-10-02T06:36:04.816Z,9.63
2022-10-02T06:38:51.630Z,10.82
2022-10-02T06:41:37.827Z,7.70
2022-10-02T06:44:32.876Z,9.32
2022-10-02T06:47:35.832Z,10.32
2022-10-02T06:50:16.876Z,7.97
2022-10-02T06:53:16.426Z,8.63
2022-10-02T06:56:02.138Z,10.90
2022-10-02T06:58:39.535Z,12.73
2022-10-02T07:01:34.147Z,8.60
2022-10-02T07:04:24.677Z,10.50
2022-10-02T07:07:09.473Z,7.82
2022-10-02T07:09:47.374Z,7.38
2022-10-02T07:12:31.237Z,11.52
2022-10-02T07:15:26.320Z,11.18
2022-10-02T07:18:32.661Z,12.35
2022-10-02T07:23:47.354Z,9.85
2022-10-02T07:26:36.721Z,14.23
2022-10-02T07:29:35.445Z,14.15
2022-10-02T07:32:21.963Z,10.60
2022-10-02T07:35:02.231Z,9.05
2022-10-02T07:37:48.266Z,11.90
2022-10-02T07:40:35.519Z,11.40
2022-10-02T07:43:22.941Z,12.50
2022-10-02T07:46:27.136Z,13.68
2022-10-02T07:49:33.160Z,6.32
2022-10-02T07:52:22.414Z,9.75
2022-10-02T07:55:09.944Z,10.48
2022-10-02T07:57:56.453Z,12.07
2022-10-02T08:00:28.661Z,10.27
2022-10-02T08:03:00.487Z,13.85
2022-10-02T08:05:40.147Z,15.27
2022-10-02T08:08:36.031Z,11.95
2022-10-02T08:11:23.456Z,12.90
2022-10-02T08:14:00.568Z,13.70
2022-10-02T08:16:40.752Z,13.27
2022-10-02T08:19:25.901Z,11.48
2022-10-02T08:22:01.801Z,12.57
2022-10-02T08:24:49.720Z,13.63
2022-10-02T08:27:41.022Z,16.38
2022-10-02T08:30:15.329Z,11.15
2022-10-02T08:32:44.124Z,15.88
2022-10-02T08:35:17.552Z,12.05
2022-10-02T08:38:12.805Z,10.43
2022-10-02T08:41:19.118Z,11.77
2022-10-02T08:43:55.985Z,14.85
2022-10-02T08:46:57.194Z,12.57
2022-10-02T08:49:47.471Z,12.10
2022-10-02T08:52:29.402Z,15.70
2022-10-02T08:55:37.635Z,13.00
2022-10-02T08:58:27.777Z,11.80
2022-10-02T09:01:35.174Z,17.02
2022-10-02T09:04:42.768Z,9.18
2022-10-02T09:07:54.960Z,17.30
2022-10-02T09:10:48.155Z,14.38
2022-10-02T09:13:40.284Z,12.93
2022-10-02T09:16:26.630Z,12.57
2022-10-02T09:19:39.585Z,12.35
2022-10-02T09:22:42.239Z,14.13
2022-10-02T09:25:15.814Z,20.15
2022-10-02T09:28:07.427Z,18.17
2022-10-02T09:30:58.407Z,16.58
2022-10-02T09:34:06.687Z,13.23
2022-10-02T09:37:13.228Z,16.50
2022-10-02T09:39:44.362Z,19.50
2022-10-02T09:42:36.024Z,11.35
2022-10-02T09:45:36.953Z,14.80
2022-10-02T09:48:08.755Z,13.32
2022-10-02T09:51:14.561Z,10.13
2022-10-02T09:54:18.874Z,15.40
2022-10-02T09:57:18.341Z,15.27
2022-10-02T10:00:04.783Z,9.75
2022-10-02T10:02:48.654Z,11.68
2022-10-02T10:05:39.356Z,8.48
2022-10-02T10:08:22.806Z,12.52
2022-10-02T10:11:16.249Z,12.40
2022-10-02T10:14:19.136Z,9.93
2022-10-02T10:17:09.801Z,9.35
2022-10-02T10:20:03.609Z,9.57
2022-10-02T10:22:39.006Z,8.35
2022-10-02T10:25:28.336Z,9.18
2022-10-02T10:28:19.444Z,6.25
2022-10-02T10:31:10.217Z,12.10
2022-10-02T10:33:38.218Z,10.13
2022-10-02T10:36:52.729Z,11.40
2022-10-02T10:39:36.904Z,10.18
2022-10-02T10:42:06.625Z,10.43
2022-10-02T10:45:25.187Z,11.65
2022-10-02T10:48:14.847Z,9.43
2022-10-02T10:51:14.486Z,8.75
2022-10-02T10:53:58.333Z,11.95
2022-10-02T10:56:57.274Z,11.70
2022-10-02T10:59:50.605Z,6.93
2022-10-02T11:02:58.886Z,9.88
2022-10-02T11:05:49.341Z,7.70
2022-10-02T11:08:32.376Z,7.00
2022-10-02T11:11:36.208Z,8.20
2022-10-02T11:14:20.712Z,10.57
2022-10-02T11:17:00.941Z,8.27
2022-10-02T11:19:47.783Z,10.35
2022-10-02T11:22:22.619Z,11.88
2022-10-02T11:25:12.561Z,13.47
2022-10-02T11:28:11.824Z,7.18
2022-10-02T11:31:11.293Z,14.93
2022-10-02T11:34:09.361Z,5.95
2022-10-02T11:36:52.992Z,12.18
2022-10-02T11:39:58.004Z,5.25
2022-10-02T11:42:36.040Z,9.53
2022-10-02T11:45:24.433Z,7.95
2022-10-02T11:47:58.025Z,11.95
2022-10-02T11:50:39.824Z,6.80
2022-10-02T11:53:29.408Z,10.77
2022-10-02T11:56:30.168Z,12.95
2022-10-02T11:59:41.603Z,7.80
2022-10-02T12:02:33.126Z,11.02
2022-10-02T12:05:15.620Z,8.70
2022-10-02T12:07:59.999Z,11.45
2022-10-02T12:10:55.416Z,9.30
2022-10-02T12:14:03.833Z,10.20
2022-10-02T12:16:56.725Z,10.13
2022-10-02T12:20:24.927Z,7.80
2022-10-02T12:23:36.360Z,9.40
2022-10-02T12:26:28.165Z,10.93
2022-10-02T12:29:14.167Z,11.27
2022-10-02T12:31:53.893Z,12.68
2022-10-02T12:34:56.515Z,9.65
2022-10-02T12:37:36.704Z,7.32
2022-10-02T12:40:21.025Z,11.00
2022-10-02T12:43:08.695Z,8.18
2022-10-02T12:45:52.180Z,7.38
2022-10-02T12:48:46.610Z,8.18
2022-10-02T12:51:35.631Z,13.13
2022-10-02T12:54:24.418Z,6.47
2022-10-02T12:57:40.139Z,10.18
2022-10-02T13:00:16.622Z,12.02
2022-10-02T13:03:06.818Z,12.95
2022-10-02T13:05:53.088Z,8.88
2022-10-02T13:08:43.115Z,9.00
2022-10-02T13:11:29.756Z,9.13
2022-10-02T13:14:13.083Z,9.57
2022-10-02T13:16:45.690Z,10.45
2022-10-02T13:19:31.571Z,6.50
2022-10-02T13:21:59.095Z,12.10
2022-10-02T13:25:21.352Z,11.70
2022-10-02T13:27:49.667Z,11.82
2022-10-02T13:30:19.950Z,14.63
2022-10-02T13:32:54.081Z,6.35
2022-10-02T13:35:56.252Z,13.48
2022-10-02T13:38:53.141Z,9.18
2022-10-02T13:41:52.206Z,8.20
2022-10-02T13:44:52.289Z,9.23
2022-10-02T13:47:37.651Z,9.43
2022-10-02T13:50:10.732Z,8.10
2022-10-02T13:53:08.627Z,8.80
2022-10-02T13:55:52.639Z,6.20
2022-10-02T13:58:54.486Z,10.60
2022-10-02T14:01:41.486Z,7.13
2022-10-02T14:04:22.695Z,7.03
2022-10-02T14:06:58.208Z,7.88
2022-10-02T14:10:01.504Z,10.95
2022-10-02T14:12:36.664Z,7.97
2022-10-02T14:15:26.494Z,7.43
2022-10-02T14:18:19.957Z,7.65
2022-10-02T14:20:48.124Z,5.18
2022-10-02T14:23:43.690Z,5.93
2022-10-02T14:26:14.280Z,6.53
2022-10-02T14:28:51.564Z,5.78
2022-10-02T14:31:38.350Z,4.72
2022-10-02T14:34:32.141Z,7.20
2022-10-02T14:37:41.486Z,5.82
2022-10-02T14:40:14.476Z,5.60
2022-10-02T14:43:03.709Z,5.43
2022-10-02T14:45:48.274Z,2.08
2022-10-02T14:48:29.858Z,2.55
2022-10-02T14:51:06.968Z,3.55
2022-10-02T14:53:59.100Z,4.85
2022-10-02T14:56:27.974Z,4.30
2022-10-02T14:59:40.550Z,4.18
2022-10-02T15:02:11.352Z,3.70
2022-10-02T15:04:50.286Z,5.20
2022-10-02T15:07:22.120Z,4.07
2022-10-02T15:10:04.407Z,5.57
2022-10-02T15:12:44.181Z,5.13
2022-10-02T15:15:47.045Z,4.72
2022-10-02T15:18:26.615Z,7.38
2022-10-02T15:21:01.153Z,6.15
2022-10-02T15:23:50.642Z,5.05
2022-10-02T15:26:44.008Z,3.78
2022-10-02T15:29:37.227Z,4.50
2022-10-02T15:32:32.511Z,6.80
2022-10-02T15:35:38.634Z,7.32
2022-10-02T15:38:31.299Z,4.60
2022-10-02T15:41:14.519Z,7.88
2022-10-02T15:44:06.948Z,4.40
2022-10-02T15:46:46.121Z,5.07
2022-10-02T15:49:27.832Z,6.03
2022-10-02T15:52:33.831Z,7.03
2022-10-02T15:55:27.680Z,6.82
2022-10-02T15:58:17.054Z,4.15
2022-10-02T16:01:01.828Z,4.32
2022-10-02T16:03:52.167Z,6.15
2022-10-02T16:06:53.321Z,4.38
2022-10-02T16:09:26.917Z,2.40
2022-10-02T16:12:40.884Z,4.88
2022-10-02T16:15:09.829Z,3.00
2022-10-02T16:17:52.470Z,2.28
2022-10-02T16:20:27.113Z,5.75
2022-10-02T16:23:03.855Z,4.70
2022-10-02T16:26:05.589Z,4.70
2022-10-02T16:28:46.519Z,9.25
2022-10-02T16:31:59.756Z,4.18
2022-10-02T16:35:02.767Z,9.70
2022-10-02T16:37:47.073Z,6.68
2022-10-02T16:40:23.078Z,7.20
2022-10-02T16:43:29.184Z,3.80
2022-10-02T16:46:21.352Z,5.60
2022-10-02T16:49:00.962Z,3.47
2022-10-02T16:51:36.330Z,5.97
2022-10-02T16:54:23.518Z,6.82
2022-10-02T16:56:57.403Z,8.95
2022-10-02T16:59:40.567Z,6.50
2022-10-02T17:02:18.483Z,8.70
2022-10-02T17:05:01.668Z,6.03
2022-10-02T17:07:42.840Z,4.38
2022-10-02T17:10:23.663Z,4.72
2022-10-02T17:13:09.834Z,4.00
2022-10-02T17:15:42.776Z,4.90
2022-10-02T17:18:26.009Z,6.10
2022-10-02T17:21:04.524Z,7.25
2022-10-02T17:24:14.221Z,6.40
2022-10-02T17:26:50.744Z,5.57
2022-10-02T17:29:37.407Z,5.70
2022-10-02T17:32:09.059Z,4.82
2022-10-02T17:34:50.343Z,6.05
2022-10-02T17:37:20.196Z,5.93
2022-10-02T17:40:39.875Z,5.40
2022-10-02T17:43:19.122Z,6.80
2022-10-02T17:46:21.135Z,5.55
2022-10-02T17:49:20.745Z,7.72
2022-10-02T17:51:57.663Z,15.25
2022-10-02T17:55:12.747Z,12.18
2022-10-02T17:57:48.341Z,7.88
2022-10-02T18:00:21.344Z,15.73
2022-10-02T18:03:10.332Z,8.68
2022-10-02T18:05:54.784Z,6.22
2022-10-02T18:08:46.298Z,9.40
2022-10-02T18:11:31.338Z,8.57
2022-10-02T18:14:17.684Z,9.38
2022-10-02T18:17:01.211Z,9.48
2022-10-02T18:19:46.806Z,6.32
2022-10-02T18:22:44.771Z,6.55
2022-10-02T18:28:19.405Z,14.25
2022-10-02T18:31:50.959Z,12.05
2022-10-02T18:34:46.364Z,7.07
2022-10-02T18:37:26.099Z,8.65
2022-10-02T18:40:26.013Z,11.63
2022-10-02T18:43:00.087Z,11.40
2022-10-02T18:45:48.643Z,9.52
2022-10-02T18:48:41.132Z,20.30
2022-10-02T18:51:18.991Z,14.43
2022-10-02T18:54:05.242Z,12.27
2022-10-02T18:57:09.834Z,9.85
2022-10-02T19:00:02.287Z,12.00
2022-10-02T19:03:06.993Z,8.10
2022-10-02T19:05:38.422Z,9.77
2022-10-02T19:08:06.251Z,12.63
2022-10-02T19:10:33.951Z,11.18
2022-10-02T19:13:17.594Z,13.48
2022-10-02T19:15:49.315Z,12.43
2022-10-02T19:18:23.821Z,11.48
2022-10-02T19:21:02.103Z,10.27
2022-10-02T19:23:33.435Z,9.68
2022-10-02T19:26:06.796Z,10.90
2022-10-02T19:28:45.648Z,11.73
2022-10-02T19:31:20.767Z,13.48
2022-10-02T19:33:57.510Z,10.70
2022-10-02T19:36:28.797Z,10.35
2022-10-02T19:39:02.463Z,10.20
2022-10-02T19:41:40.424Z,11.68
2022-10-02T19:44:25.109Z,14.40
2022-10-02T19:46:59.025Z,11.93
2022-10-02T19:49:40.035Z,12.25
2022-10-02T19:52:44.833Z,9.23
2022-10-02T19:55:25.181Z,11.57
2022-10-02T19:57:57.883Z,12.30
2022-10-02T20:00:25.624Z,9.13
2022-10-02T20:02:56.454Z,11.32
2022-10-02T20:05:33.827Z,9.05
2022-10-02T20:10:41.596Z,12.85
2022-10-02T20:13:26.637Z,12.18
2022-10-02T20:16:25.181Z,13.80
2022-10-02T20:18:53.595Z,9.13
2022-10-02T20:21:31.289Z,13.40
2022-10-02T20:24:04.434Z,9.13
2022-10-02T20:26:36.825Z,11.18
2022-10-02T20:29:14.843Z,12.98
2022-10-02T20:31:58.477Z,9.73
2022-10-02T20:34:38.055Z,7.63
2022-10-02T20:37:12.593Z,10.52
2022-10-02T20:39:50.122Z,13.55
2022-10-02T20:42:23.060Z,16.27
2022-10-02T20:44:51.356Z,12.43
2022-10-02T20:47:46.112Z,15.48
2022-10-02T20:50:22.476Z,11.60
2022-10-02T20:53:27.008Z,10.85
2022-10-02T20:56:07.720Z,12.07
2022-10-02T20:58:51.272Z,13.52
2022-10-02T21:01:20.980Z,9.48
2022-10-02T21:04:14.456Z,11.82
2022-10-02T21:07:17.916Z,11.65
2022-10-02T21:09:49.290Z,13.82
2022-10-02T21:12:31.078Z,11.65
2022-10-02T21:15:18.850Z,11.63
2022-10-02T21:18:29.799Z,11.38
2022-10-02T21:21:20.920Z,12.45
2022-10-02T21:24:40.183Z,11.02
2022-10-02T21:27:44.082Z,15.02
2022-10-02T21:30:16.264Z,11.68
2022-10-02T21:33:02.664Z,11.75
2022-10-02T21:36:10.701Z,14.63
2022-10-02T21:39:12.978Z,9.38
2022-10-02T21:42:17.572Z,7.22
2022-10-02T21:45:06.525Z,15.70
2022-10-02T21:47:47.156Z,12.80
2022-10-02T21:50:18.247Z,21.38
2022-10-02T21:53:23.693Z,12.55
2022-10-02T21:56:05.935Z,10.95
2022-10-02T21:58:49.591Z,11.80
2022-10-02T22:01:42.748Z,13.50
2022-10-02T22:07:12.116Z,7.57
2022-10-02T22:09:52.414Z,11.05
2022-10-02T22:12:58.917Z,8.10
2022-10-02T22:15:40.795Z,12.10
2022-10-02T22:18:44.490Z,10.63
2022-10-02T22:21:28.803Z,12.68
2022-10-02T22:23:56.145Z,11.45
2022-10-02T22:26:27.268Z,9.88
2022-10-02T22:29:09.040Z,12.10
2022-10-02T22:32:20.331Z,10.57
2022-10-02T22:34:50.730Z,8.70
2022-10-02T22:37:41.179Z,13.85
2022-10-02T22:40:23.379Z,10.15
2022-10-02T22:43:07.167Z,7.43
2022-10-02T22:45:44.921Z,11.60
2022-10-02T22:48:23.018Z,13.80
2022-10-02T22:50:59.334Z,9.88
2022-10-02T22:53:35.791Z,12.80
2022-10-02T22:56:03.328Z,14.35
2022-10-02T22:58:44.459Z,13.80
2022-10-02T23:01:21.295Z,11.80
2022-10-02T23:04:04.056Z,9.95
2022-10-02T23:07:04.227Z,9.65
2022-10-02T23:09:38.741Z,12.40
2022-10-02T23:12:18.435Z,13.82
2022-10-02T23:15:04.515Z,13.88
2022-10-02T23:17:49.059Z,11.02
2022-10-02T23:20:27.790Z,15.40
2022-10-02T23:23:28.367Z,11.45
2022-10-02T23:26:19.595Z,12.50
2022-10-02T23:29:05.822Z,8.35
2022-10-02T23:31:48.116Z,13.32
2022-10-02T23:34:45.099Z,13.02
2022-10-02T23:37:32.247Z,13.57
2022-10-02T23:40:06.200Z,12.98
2022-10-02T23:42:59.125Z,12.73
2022-10-02T23:45:41.822Z,7.45
2022-10-02T23:48:14.122Z,12.52
2022-10-02T23:50:53.130Z,11.82
2022-10-02T23:53:58.621Z,13.45
2022-10-02T23:56:39.337Z,6.93
2022-10-02T23:59:22.513Z,11.70
